Master — D5EU3 — position and weather

sailwx.info

Track history (hours):
 
Tides and Currents Weather Stations Pressure Air Temp Water Temp Dewpoint Dewpoint Depression Visibility Wind Speed Wind Dir Waves Ship Positions

Master

Last reported at 2017-Dec-11 15:40 UTC. Time now 2017-Dec-16 15:09 UTC.
Position N 50°20' W 132°39'.

Length 229 m; draft 14.4 m.

Type: Cargo ship. MMSI: 636016168.

Date/timePositionNaut miles runAvg speedWind from/ knotsBaromVisibWave heightAir tempDewpointWater temp
2017-Dec-11 15:40N 50°20' W 132°39'3 9.9
2017-Dec-11 15:23N 50°19' W 132°35'410.0
2017-Dec-11 14:58N 50°17' W 132°29'510.1
2017-Dec-11 14:30N 50°15' W 132°23'510.1
2017-Dec-11 14:00N 50°13' W 132°15'5 9.8
2017-Dec-11 13:30N 50°11' W 132°08'5 9.9
2017-Dec-11 13:00N 50°09' W 132°01'5 9.7
2017-Dec-11 12:30N 50°07' W 131°54'5 9.8
2017-Dec-11 12:00N 50°05' W 131°47'510.1
2017-Dec-11 11:30N 50°03' W 131°40'510.1
2017-Dec-11 11:00N 50°01' W 131°33'5 9.8
2017-Dec-11 10:31N 49°59' W 131°26'5 9.9
2017-Dec-11 10:00N 49°57' W 131°19'5 9.8
2017-Dec-11 09:30N 49°55' W 131°12'5 9.6
2017-Dec-11 09:00N 49°53' W 131°05'5 9.7
2017-Dec-11 08:30N 49°51' W 130°58'5 9.9
2017-Dec-11 08:00N 49°49' W 130°51'5 9.9
2017-Dec-11 07:30N 49°47' W 130°44'610.0
2017-Dec-11 06:53N 49°44' W 130°36'410.1
2017-Dec-11 06:29N 49°42' W 130°30'16610.2
2017-Dec-10 14:13N 48°38' W 126°36'7 9.9
2017-Dec-10 13:30N 48°37' W 126°26'5 9.7
2017-Dec-10 13:00N 48°37' W 126°19'5 9.5
2017-Dec-10 12:29N 48°36' W 126°11'510.1
2017-Dec-10 12:00N 48°35' W 126°04'510.1
2017-Dec-10 11:30N 48°35' W 125°56'510.5
2017-Dec-10 11:00N 48°34' W 125°48'510.4
2017-Dec-10 10:30N 48°34' W 125°41'510.5
2017-Dec-10 10:00N 48°33' W 125°33'510.7
2017-Dec-10 09:30N 48°32' W 125°25'611.1
2017-Dec-10 09:00N 48°32' W 125°16'611.3
2017-Dec-10 08:30N 48°31' W 125°08'611.6
2017-Dec-10 08:00N 48°31' W 124°59'611.7
2017-Dec-10 07:30N 48°31' W 124°50'611.1
2017-Dec-10 07:00N 48°30' W 124°42'612.6
2017-Dec-10 06:30N 48°28' W 124°33'612.3
2017-Dec-10 06:00N 48°25' W 124°25'611.9
2017-Dec-10 05:30N 48°23' W 124°17'611.6
2017-Dec-10 05:00N 48°21' W 124°09'611.7
2017-Dec-10 04:30N 48°19' W 124°00'611.8
2017-Dec-10 04:00N 48°17' W 123°52'611.4
2017-Dec-10 03:29N 48°16' W 123°43'611.4
2017-Dec-10 03:00N 48°16' W 123°35'4 8.4
2017-Dec-10 02:30N 48°17' W 123°29'5 9.3
2017-Dec-10 02:00N 48°21' W 123°26'4 8.5
2017-Dec-10 01:30N 48°23' W 123°20'5 9.9
2017-Dec-10 01:00N 48°25' W 123°13'612.2
2017-Dec-10 00:31N 48°31' W 123°13'713.5
2017-Dec-10 00:00N 48°37' W 123°14'612.1
2017-Dec-09 23:30N 48°43' W 123°13'713.4
2017-Dec-09 23:00N 48°46' W 123°03'510.2
2017-Dec-09 22:30N 48°51' W 123°04'713.5
2017-Dec-09 22:00N 48°56' W 123°11'612.9
2017-Dec-09 21:30N 49°00' W 123°18'611.4
2017-Dec-09 21:00N 49°05' W 123°24'613.1
2017-Dec-09 20:30N 49°11' W 123°22'611.9
2017-Dec-09 20:00N 49°17' W 123°20'611.2
2017-Dec-09 19:30N 49°19' W 123°12'5 9.3
2017-Dec-09 19:00N 49°18' W 123°05'0 0.6
2017-Dec-09 18:30N 49°18' W 123°05'0 0.2
2017-Dec-09 18:00N 49°18' W 123°05'0 0.1
2017-Dec-09 17:30N 49°18' W 123°05'0 0.3
2017-Dec-09 17:00N 49°18' W 123°05'0 0.1
2017-Dec-09 16:30N 49°18' W 123°05'0 0.1
2017-Dec-09 16:00N 49°18' W 123°05'0 0.2
2017-Dec-09 15:30N 49°18' W 123°05'0 0.0
2017-Dec-09 15:00N 49°18' W 123°05'0 0.0
2017-Dec-09 14:30N 49°18' W 123°05'0 0.1
2017-Dec-09 14:00N 49°18' W 123°05'0 0.2
2017-Dec-09 13:30N 49°18' W 123°05'0 0.2
2017-Dec-09 13:00N 49°18' W 123°05'0 0.2
2017-Dec-09 12:30N 49°18' W 123°05'0 0.1
2017-Dec-09 12:00N 49°18' W 123°05'0 0.1
2017-Dec-09 11:24N 49°18' W 123°05'0 0.0
2017-Dec-09 11:00N 49°18' W 123°05'0 0.1
2017-Dec-09 10:30N 49°18' W 123°05'0 0.0
2017-Dec-09 10:00N 49°18' W 123°05'0 0.0
2017-Dec-09 09:30N 49°18' W 123°05'0 0.0
2017-Dec-09 09:00N 49°18' W 123°05'0 0.0
2017-Dec-09 08:30N 49°18' W 123°05'0 0.0
2017-Dec-09 08:00N 49°18' W 123°05'0 0.0
2017-Dec-09 07:24N 49°18' W 123°05'0 0.0
2017-Dec-09 07:00N 49°18' W 123°05'0 0.0
2017-Dec-09 06:30N 49°18' W 123°05'0 0.0
2017-Dec-09 06:00N 49°18' W 123°05'0 0.0
2017-Dec-09 05:30N 49°18' W 123°05'0 0.0
2017-Dec-09 05:00N 49°18' W 123°05'0 0.1
2017-Dec-09 04:30N 49°18' W 123°05'0 0.0
2017-Dec-09 04:00N 49°18' W 123°05'0 0.1
2017-Dec-09 03:30N 49°18' W 123°05'0 0.0
2017-Dec-09 03:00N 49°18' W 123°05'0 0.0
2017-Dec-09 02:30N 49°18' W 123°05'0 0.0
2017-Dec-09 02:00N 49°18' W 123°05'0 0.1
2017-Dec-09 01:30N 49°18' W 123°05'0 0.0
2017-Dec-09 01:00N 49°18' W 123°05'0 0.0
2017-Dec-09 00:30N 49°18' W 123°05'0 0.0
2017-Dec-09 00:00N 49°18' W 123°05'0 0.0
2017-Dec-08 23:30N 49°18' W 123°05'0 0.0
2017-Dec-08 23:00N 49°18' W 123°05'0 0.0
2017-Dec-08 22:30N 49°18' W 123°05'0 0.0
2017-Dec-08 22:00N 49°18' W 123°05'0 0.1
2017-Dec-08 21:30N 49°18' W 123°05'0 0.1
2017-Dec-08 21:00N 49°18' W 123°05'0 0.3
2017-Dec-08 20:30N 49°18' W 123°05'0 0.1
2017-Dec-08 20:00N 49°18' W 123°05'0 0.1
2017-Dec-08 19:30N 49°18' W 123°05'0 0.1
2017-Dec-08 19:00N 49°18' W 123°05'0 0.1
2017-Dec-08 18:30N 49°18' W 123°05'1 1.3
2017-Dec-08 18:00N 49°18' W 123°04'1 2.4
2017-Dec-08 17:30N 49°18' W 123°02'0 0.1
2017-Dec-08 16:26N 49°18' W 123°02'0 0.0
2017-Dec-08 15:59N 49°18' W 123°02'0 0.0
2017-Dec-08 15:23N 49°18' W 123°02'0 0.0
2017-Dec-08 14:59N 49°18' W 123°02'0 0.0
2017-Dec-08 14:29N 49°18' W 123°02'0 0.0
2017-Dec-08 13:59N 49°18' W 123°02'0 0.0
2017-Dec-08 13:29N 49°18' W 123°02'0 0.0
2017-Dec-08 12:53N 49°18' W 123°02'0 0.0
2017-Dec-08 12:26N 49°18' W 123°02'0 0.0
2017-Dec-08 11:59N 49°18' W 123°02'0 0.0
2017-Dec-08 11:29N 49°18' W 123°02'0 0.0
2017-Dec-08 10:59N 49°18' W 123°02'0 0.0
2017-Dec-08 10:26N 49°18' W 123°02'0 0.0
2017-Dec-08 09:56N 49°18' W 123°02'0 0.0
2017-Dec-08 09:29N 49°18' W 123°02'0 0.0
2017-Dec-08 08:59N 49°18' W 123°02'0 0.0
2017-Dec-08 08:29N 49°18' W 123°02'0 0.0
2017-Dec-08 07:59N 49°18' W 123°02'0 0.0
2017-Dec-08 07:29N 49°18' W 123°02'0 0.0
2017-Dec-08 06:59N 49°18' W 123°02'0 0.0
2017-Dec-08 06:29N 49°18' W 123°02'0 0.0
2017-Dec-08 05:59N 49°18' W 123°02'0 0.0
2017-Dec-08 05:29N 49°18' W 123°02'0 0.0
2017-Dec-08 04:59N 49°18' W 123°02'0 0.0
2017-Dec-08 04:29N 49°18' W 123°02'0 0.0
2017-Dec-08 03:59N 49°18' W 123°02'0 0.0
2017-Dec-08 03:26N 49°18' W 123°02'0 0.0
2017-Dec-08 02:56N 49°18' W 123°02'0 0.0
2017-Dec-08 02:29N 49°18' W 123°02'0 0.0
2017-Dec-08 01:56N 49°18' W 123°02'0 0.0
2017-Dec-08 01:26N 49°18' W 123°02'0 0.0
2017-Dec-08 00:59N 49°18' W 123°02'0 0.0
2017-Dec-08 00:26N 49°18' W 123°02'0 0.0
2017-Dec-07 23:56N 49°18' W 123°02'0 0.0
2017-Dec-07 23:29N 49°18' W 123°02'0 0.0
2017-Dec-07 22:56N 49°18' W 123°02'0 0.0
2017-Dec-07 22:11N 49°18' W 123°02'0 0.0
2017-Dec-07 21:59N 49°18' W 123°02'0 0.0
2017-Dec-07 21:23N 49°18' W 123°02'0 0.0
2017-Dec-07 20:59N 49°18' W 123°02'0 0.0
2017-Dec-07 20:29N 49°18' W 123°02'0 0.0
2017-Dec-07 19:56N 49°18' W 123°02'0 0.0
2017-Dec-07 19:23N 49°18' W 123°02'0 0.0
2017-Dec-07 18:56N 49°18' W 123°02'0 0.0
2017-Dec-07 18:26N 49°18' W 123°02'0 0.0
2017-Dec-07 17:59N 49°18' W 123°02'0 0.0
2017-Dec-07 17:11N 49°18' W 123°02'0 0.0
2017-Dec-07 16:50N 49°18' W 123°02'0 0.0
2017-Dec-07 16:29N 49°18' W 123°02'0 0.0
2017-Dec-07 15:59N 49°18' W 123°02'0 0.0
2017-Dec-07 15:26N 49°18' W 123°02'0 0.0
2017-Dec-07 14:56N 49°18' W 123°02'0 0.0
2017-Dec-07 14:23N 49°18' W 123°02'0 0.0
2017-Dec-07 13:53N 49°18' W 123°02'0 0.0
2017-Dec-07 13:11N 49°18' W 123°02'0 0.0
2017-Dec-07 12:59N 49°18' W 123°02'0 0.0
2017-Dec-07 12:29N 49°18' W 123°02'0 0.0
2017-Dec-07 11:56N 49°18' W 123°02'0 0.0
2017-Dec-07 11:29N 49°18' W 123°02'0 0.0
2017-Dec-07 10:59N 49°18' W 123°02'0 0.0
2017-Dec-07 10:26N 49°18' W 123°02'0 0.0
2017-Dec-07 09:59N 49°18' W 123°02'0 0.0
2017-Dec-07 09:29N 49°18' W 123°02'0 0.0
2017-Dec-07 08:59N 49°18' W 123°02'0 0.0
2017-Dec-07 08:29N 49°18' W 123°02'0 0.0
2017-Dec-07 07:59N 49°18' W 123°02'0 0.0
2017-Dec-07 07:29N 49°18' W 123°02'0 0.0
2017-Dec-07 06:59N 49°18' W 123°02'0 0.0
2017-Dec-07 06:29N 49°18' W 123°02'0 0.0
2017-Dec-07 05:59N 49°18' W 123°02'0 0.0
2017-Dec-07 05:29N 49°18' W 123°02'0 0.0
2017-Dec-07 04:59N 49°18' W 123°02'0 0.0
2017-Dec-07 04:17N 49°18' W 123°02'0 0.0
2017-Dec-07 03:59N 49°18' W 123°02'0 0.0
2017-Dec-07 03:29N 49°18' W 123°02'0 0.0
2017-Dec-07 02:53N 49°18' W 123°02'0 0.0
2017-Dec-07 02:29N 49°18' W 123°02'0 0.0
2017-Dec-07 01:59N 49°18' W 123°02'0 0.0
2017-Dec-07 01:29N 49°18' W 123°02'0 0.0
2017-Dec-07 00:59N 49°18' W 123°02'0 0.0
2017-Dec-07 00:29N 49°18' W 123°02'0 0.0
2017-Dec-06 23:59N 49°18' W 123°02'1 2.3
2017-Dec-06 23:30N 49°18' W 123°03'4 8.4
2017-Dec-06 23:00N 49°19' W 123°10'1 2.4
2017-Dec-06 22:30N 49°18' W 123°11'0 0.0
2017-Dec-06 21:54N 49°18' W 123°11'0 0.0
2017-Dec-06 21:30N 49°18' W 123°11'0 0.0
2017-Dec-06 20:54N 49°18' W 123°11'  
2017-Dec-04 10:23N 48°57' W 123°37'0 0.0
2017-Dec-04 09:59N 48°57' W 123°37'0 0.1
2017-Dec-04 09:29N 48°57' W 123°37'0 0.1
2017-Dec-04 08:44N 48°57' W 123°37'0 0.0
2017-Dec-04 08:29N 48°57' W 123°37'0 0.1
2017-Dec-04 07:59N 48°57' W 123°37'0 0.1
2017-Dec-04 07:29N 48°57' W 123°37'0 0.1
2017-Dec-04 06:50N 48°57' W 123°37'0 0.1
2017-Dec-04 06:29N 48°57' W 123°37'0 0.1
2017-Dec-04 05:59N 48°57' W 123°37'0 0.0
2017-Dec-04 05:29N 48°57' W 123°37'0 0.0
2017-Dec-04 04:26N 48°57' W 123°37'0 0.0
2017-Dec-04 03:56N 48°57' W 123°37'0 0.0
2017-Dec-04 03:29N 48°57' W 123°37'0 0.0
2017-Dec-04 02:56N 48°57' W 123°37'0 0.1
2017-Dec-04 02:29N 48°57' W 123°37'0 0.0
2017-Dec-04 01:59N 48°57' W 123°37'0 0.0
2017-Dec-04 01:23N 48°57' W 123°37'0 0.0
2017-Dec-04 00:59N 48°57' W 123°37'0 0.1
2017-Dec-04 00:14N 48°57' W 123°37'0 0.0
2017-Dec-03 23:59N 48°57' W 123°37'0 0.0
2017-Dec-03 23:26N 48°57' W 123°37'0 0.0
2017-Dec-03 22:59N 48°57' W 123°37'0 0.0
2017-Dec-03 22:29N 48°57' W 123°37'0 0.0
2017-Dec-03 21:53N 48°57' W 123°37'0 0.0
2017-Dec-03 21:29N 48°57' W 123°37'0 0.0
2017-Dec-03 20:59N 48°57' W 123°37'0 0.1
2017-Dec-03 20:26N 48°57' W 123°37'0 0.1
2017-Dec-03 19:59N 48°57' W 123°37'0 0.0
2017-Dec-03 19:29N 48°57' W 123°37'0 0.0
2017-Dec-03 18:56N 48°57' W 123°37'0 0.1
2017-Dec-03 18:29N 48°57' W 123°37'0 0.1
2017-Dec-03 17:59N 48°57' W 123°37'0 0.0
2017-Dec-03 17:29N 48°57' W 123°37'0 0.0
2017-Dec-03 16:50N 48°57' W 123°37'0 0.0
2017-Dec-03 16:23N 48°57' W 123°37'0 0.0
2017-Dec-03 15:56N 48°57' W 123°37'0 0.1
2017-Dec-03 15:23N 48°57' W 123°37'0 0.0
2017-Dec-03 14:56N 48°57' W 123°37'0 0.0
2017-Dec-03 14:26N 48°57' W 123°37'0 0.0
2017-Dec-03 13:59N 48°57' W 123°37'0 0.0
2017-Dec-03 13:08N 48°57' W 123°37'0 0.0
2017-Dec-03 12:56N 48°57' W 123°37'0 0.1
2017-Dec-03 12:26N 48°57' W 123°37'0 0.1
2017-Dec-03 11:56N 48°57' W 123°37'0 0.1
2017-Dec-03 11:26N 48°57' W 123°37'0 0.1
2017-Dec-03 10:56N 48°57' W 123°37'0 0.0
2017-Dec-03 10:29N 48°57' W 123°37'0 0.0
2017-Dec-03 09:59N 48°57' W 123°37'0 0.0
2017-Dec-03 09:29N 48°57' W 123°37'0 0.0
2017-Dec-03 08:50N 48°57' W 123°37'0 0.0
2017-Dec-03 08:29N 48°57' W 123°37'0 0.0
2017-Dec-03 07:56N 48°57' W 123°37'0 0.0
2017-Dec-03 07:26N 48°57' W 123°37'0 0.0
2017-Dec-03 06:59N 48°57' W 123°37'0 0.0
2017-Dec-03 06:26N 48°57' W 123°37'0 0.1
2017-Dec-03 05:59N 48°57' W 123°37'0 0.1
2017-Dec-03 05:23N 48°57' W 123°37'0 0.0
2017-Dec-03 04:17N 48°57' W 123°37'0 0.1
2017-Dec-03 03:56N 48°57' W 123°37'0 0.1
2017-Dec-03 03:29N 48°57' W 123°37'0 0.0
2017-Dec-03 02:53N 48°57' W 123°37'0 0.2
2017-Dec-03 02:23N 48°57' W 123°37'0 0.1
2017-Dec-03 01:56N 48°57' W 123°37'0 0.2
2017-Dec-03 01:26N 48°57' W 123°37'0 0.1
2017-Dec-03 00:56N 48°57' W 123°37'0 0.1
2017-Dec-03 00:23N 48°57' W 123°37'0 0.1
2017-Dec-02 23:56N 48°57' W 123°37'0 0.0
2017-Dec-02 23:29N 48°57' W 123°37'0 0.0
2017-Dec-02 22:59N 48°57' W 123°37'0 0.0
2017-Dec-02 22:26N 48°57' W 123°37'0 0.1
2017-Dec-02 21:56N 48°57' W 123°37'0 0.0
2017-Dec-02 21:17N 48°57' W 123°37'0 0.1
2017-Dec-02 17:23N 48°57' W 123°37'0 0.0
2017-Dec-02 16:08N 48°57' W 123°37'0 0.0
2017-Dec-02 15:38N 48°57' W 123°37'0 0.0
2017-Dec-02 15:20N 48°57' W 123°37'0 0.0
2017-Dec-02 13:59N 48°57' W 123°37'0 0.2
2017-Dec-02 13:08N 48°57' W 123°37'0 0.1
2017-Dec-02 12:56N 48°57' W 123°37'0 0.2
2017-Dec-02 12:29N 48°57' W 123°37'0 0.0
2017-Dec-02 11:59N 48°57' W 123°37'0 0.1
2017-Dec-02 11:29N 48°57' W 123°37'0 0.0
2017-Dec-02 10:59N 48°57' W 123°37'0 0.0
2017-Dec-02 10:26N 48°57' W 123°37'0 0.1
2017-Dec-02 09:56N 48°57' W 123°37'0 0.5
2017-Dec-02 09:29N 48°57' W 123°37'0 0.2
2017-Dec-02 08:59N 48°57' W 123°37'0 0.0
2017-Dec-02 07:35N 48°57' W 123°37'0 0.0
2017-Dec-02 07:23N 48°57' W 123°37'0 0.2
2017-Dec-02 06:59N 48°57' W 123°37'0 0.0
2017-Dec-02 02:05N 48°57' W 123°37'0 0.0
2017-Dec-02 01:59N 48°57' W 123°37'0 0.0
2017-Dec-02 01:26N 48°57' W 123°37'0 0.0
2017-Dec-02 00:38N 48°57' W 123°37'0 0.0
2017-Dec-02 00:14N 48°57' W 123°37'0 0.0
2017-Dec-01 23:56N 48°57' W 123°37'0 0.0
2017-Dec-01 22:56N 48°57' W 123°37'0 0.0
2017-Dec-01 22:23N 48°57' W 123°37'0 0.0
2017-Dec-01 21:53N 48°57' W 123°37'0 0.0
2017-Dec-01 21:26N 48°57' W 123°37'0 0.0
2017-Dec-01 20:59N 48°57' W 123°37'0 0.1
2017-Dec-01 20:29N 48°57' W 123°37'0 0.0
2017-Dec-01 19:53N 48°57' W 123°37'0 0.1
2017-Dec-01 19:17N 48°57' W 123°37'0 0.0
2017-Dec-01 18:47N 48°57' W 123°37'0 0.1
2017-Dec-01 18:20N 48°57' W 123°37'0 0.0
2017-Dec-01 17:59N 48°57' W 123°37'0 0.0
2017-Dec-01 17:11N 48°57' W 123°37'0 0.0
2017-Dec-01 16:44N 48°57' W 123°37'0 0.1
2017-Dec-01 16:05N 48°57' W 123°37'0 0.0
2017-Dec-01 15:47N 48°57' W 123°37'  
Track history (hours):
 
Tides and Currents Weather Stations Pressure Air Temp Water Temp Dewpoint Dewpoint Depression Visibility Wind Speed Wind Dir Waves Ship Positions

Master

Last reported at 2017-Dec-11 15:40 UTC. Time now 2017-Dec-16 15:09 UTC.
Position N 50°20' W 132°39'.

Length 229 m; draft 14.4 m.

Type: Cargo ship. MMSI: 636016168.

Date/timePositionNaut miles runAvg speedWind from/ knotsBaromVisibWave heightAir tempDewpointWater temp
2017-Dec-11 15:40N 50°20' W 132°39'3 9.9
2017-Dec-11 15:23N 50°19' W 132°35'410.0
2017-Dec-11 14:58N 50°17' W 132°29'510.1
2017-Dec-11 14:30N 50°15' W 132°23'510.1
2017-Dec-11 14:00N 50°13' W 132°15'5 9.8
2017-Dec-11 13:30N 50°11' W 132°08'5 9.9
2017-Dec-11 13:00N 50°09' W 132°01'5 9.7
2017-Dec-11 12:30N 50°07' W 131°54'5 9.8
2017-Dec-11 12:00N 50°05' W 131°47'510.1
2017-Dec-11 11:30N 50°03' W 131°40'510.1
2017-Dec-11 11:00N 50°01' W 131°33'5 9.8
2017-Dec-11 10:31N 49°59' W 131°26'5 9.9
2017-Dec-11 10:00N 49°57' W 131°19'5 9.8
2017-Dec-11 09:30N 49°55' W 131°12'5 9.6
2017-Dec-11 09:00N 49°53' W 131°05'5 9.7
2017-Dec-11 08:30N 49°51' W 130°58'5 9.9
2017-Dec-11 08:00N 49°49' W 130°51'5 9.9
2017-Dec-11 07:30N 49°47' W 130°44'610.0
2017-Dec-11 06:53N 49°44' W 130°36'410.1
2017-Dec-11 06:29N 49°42' W 130°30'16610.2
2017-Dec-10 14:13N 48°38' W 126°36'7 9.9
2017-Dec-10 13:30N 48°37' W 126°26'5 9.7
2017-Dec-10 13:00N 48°37' W 126°19'5 9.5
2017-Dec-10 12:29N 48°36' W 126°11'510.1
2017-Dec-10 12:00N 48°35' W 126°04'510.1
2017-Dec-10 11:30N 48°35' W 125°56'510.5
2017-Dec-10 11:00N 48°34' W 125°48'510.4
2017-Dec-10 10:30N 48°34' W 125°41'510.5
2017-Dec-10 10:00N 48°33' W 125°33'510.7
2017-Dec-10 09:30N 48°32' W 125°25'611.1
2017-Dec-10 09:00N 48°32' W 125°16'611.3
2017-Dec-10 08:30N 48°31' W 125°08'611.6
2017-Dec-10 08:00N 48°31' W 124°59'611.7
2017-Dec-10 07:30N 48°31' W 124°50'611.1
2017-Dec-10 07:00N 48°30' W 124°42'612.6
2017-Dec-10 06:30N 48°28' W 124°33'612.3
2017-Dec-10 06:00N 48°25' W 124°25'611.9
2017-Dec-10 05:30N 48°23' W 124°17'611.6
2017-Dec-10 05:00N 48°21' W 124°09'611.7
2017-Dec-10 04:30N 48°19' W 124°00'611.8
2017-Dec-10 04:00N 48°17' W 123°52'611.4
2017-Dec-10 03:29N 48°16' W 123°43'611.4
2017-Dec-10 03:00N 48°16' W 123°35'4 8.4
2017-Dec-10 02:30N 48°17' W 123°29'5 9.3
2017-Dec-10 02:00N 48°21' W 123°26'4 8.5
2017-Dec-10 01:30N 48°23' W 123°20'5 9.9
2017-Dec-10 01:00N 48°25' W 123°13'612.2
2017-Dec-10 00:31N 48°31' W 123°13'713.5
2017-Dec-10 00:00N 48°37' W 123°14'612.1
2017-Dec-09 23:30N 48°43' W 123°13'713.4
2017-Dec-09 23:00N 48°46' W 123°03'510.2
2017-Dec-09 22:30N 48°51' W 123°04'713.5
2017-Dec-09 22:00N 48°56' W 123°11'612.9
2017-Dec-09 21:30N 49°00' W 123°18'611.4
2017-Dec-09 21:00N 49°05' W 123°24'613.1
2017-Dec-09 20:30N 49°11' W 123°22'611.9
2017-Dec-09 20:00N 49°17' W 123°20'611.2
2017-Dec-09 19:30N 49°19' W 123°12'5 9.3
2017-Dec-09 19:00N 49°18' W 123°05'0 0.6
2017-Dec-09 18:30N 49°18' W 123°05'0 0.2
2017-Dec-09 18:00N 49°18' W 123°05'0 0.1
2017-Dec-09 17:30N 49°18' W 123°05'0 0.3
2017-Dec-09 17:00N 49°18' W 123°05'0 0.1
2017-Dec-09 16:30N 49°18' W 123°05'0 0.1
2017-Dec-09 16:00N 49°18' W 123°05'0 0.2
2017-Dec-09 15:30N 49°18' W 123°05'0 0.0
2017-Dec-09 15:00N 49°18' W 123°05'0 0.0
2017-Dec-09 14:30N 49°18' W 123°05'0 0.1
2017-Dec-09 14:00N 49°18' W 123°05'0 0.2
2017-Dec-09 13:30N 49°18' W 123°05'0 0.2
2017-Dec-09 13:00N 49°18' W 123°05'0 0.2
2017-Dec-09 12:30N 49°18' W 123°05'0 0.1
2017-Dec-09 12:00N 49°18' W 123°05'0 0.1
2017-Dec-09 11:24N 49°18' W 123°05'0 0.0
2017-Dec-09 11:00N 49°18' W 123°05'0 0.1
2017-Dec-09 10:30N 49°18' W 123°05'0 0.0
2017-Dec-09 10:00N 49°18' W 123°05'0 0.0
2017-Dec-09 09:30N 49°18' W 123°05'0 0.0
2017-Dec-09 09:00N 49°18' W 123°05'0 0.0
2017-Dec-09 08:30N 49°18' W 123°05'0 0.0
2017-Dec-09 08:00N 49°18' W 123°05'0 0.0
2017-Dec-09 07:24N 49°18' W 123°05'0 0.0
2017-Dec-09 07:00N 49°18' W 123°05'0 0.0
2017-Dec-09 06:30N 49°18' W 123°05'0 0.0
2017-Dec-09 06:00N 49°18' W 123°05'0 0.0
2017-Dec-09 05:30N 49°18' W 123°05'0 0.0
2017-Dec-09 05:00N 49°18' W 123°05'0 0.1
2017-Dec-09 04:30N 49°18' W 123°05'0 0.0
2017-Dec-09 04:00N 49°18' W 123°05'0 0.1
2017-Dec-09 03:30N 49°18' W 123°05'0 0.0
2017-Dec-09 03:00N 49°18' W 123°05'0 0.0
2017-Dec-09 02:30N 49°18' W 123°05'0 0.0
2017-Dec-09 02:00N 49°18' W 123°05'0 0.1
2017-Dec-09 01:30N 49°18' W 123°05'0 0.0
2017-Dec-09 01:00N 49°18' W 123°05'0 0.0
2017-Dec-09 00:30N 49°18' W 123°05'0 0.0
2017-Dec-09 00:00N 49°18' W 123°05'0 0.0
2017-Dec-08 23:30N 49°18' W 123°05'0 0.0
2017-Dec-08 23:00N 49°18' W 123°05'0 0.0
2017-Dec-08 22:30N 49°18' W 123°05'0 0.0
2017-Dec-08 22:00N 49°18' W 123°05'0 0.1
2017-Dec-08 21:30N 49°18' W 123°05'0 0.1
2017-Dec-08 21:00N 49°18' W 123°05'0 0.3
2017-Dec-08 20:30N 49°18' W 123°05'0 0.1
2017-Dec-08 20:00N 49°18' W 123°05'0 0.1
2017-Dec-08 19:30N 49°18' W 123°05'0 0.1
2017-Dec-08 19:00N 49°18' W 123°05'0 0.1
2017-Dec-08 18:30N 49°18' W 123°05'1 1.3
2017-Dec-08 18:00N 49°18' W 123°04'1 2.4
2017-Dec-08 17:30N 49°18' W 123°02'0 0.1
2017-Dec-08 16:26N 49°18' W 123°02'0 0.0
2017-Dec-08 15:59N 49°18' W 123°02'0 0.0
2017-Dec-08 15:23N 49°18' W 123°02'0 0.0
2017-Dec-08 14:59N 49°18' W 123°02'0 0.0
2017-Dec-08 14:29N 49°18' W 123°02'0 0.0
2017-Dec-08 13:59N 49°18' W 123°02'0 0.0
2017-Dec-08 13:29N 49°18' W 123°02'0 0.0
2017-Dec-08 12:53N 49°18' W 123°02'0 0.0
2017-Dec-08 12:26N 49°18' W 123°02'0 0.0
2017-Dec-08 11:59N 49°18' W 123°02'0 0.0
2017-Dec-08 11:29N 49°18' W 123°02'0 0.0
2017-Dec-08 10:59N 49°18' W 123°02'0 0.0
2017-Dec-08 10:26N 49°18' W 123°02'0 0.0
2017-Dec-08 09:56N 49°18' W 123°02'0 0.0
2017-Dec-08 09:29N 49°18' W 123°02'0 0.0
2017-Dec-08 08:59N 49°18' W 123°02'0 0.0
2017-Dec-08 08:29N 49°18' W 123°02'0 0.0
2017-Dec-08 07:59N 49°18' W 123°02'0 0.0
2017-Dec-08 07:29N 49°18' W 123°02'0 0.0
2017-Dec-08 06:59N 49°18' W 123°02'0 0.0
2017-Dec-08 06:29N 49°18' W 123°02'0 0.0
2017-Dec-08 05:59N 49°18' W 123°02'0 0.0
2017-Dec-08 05:29N 49°18' W 123°02'0 0.0
2017-Dec-08 04:59N 49°18' W 123°02'0 0.0
2017-Dec-08 04:29N 49°18' W 123°02'0 0.0
2017-Dec-08 03:59N 49°18' W 123°02'0 0.0
2017-Dec-08 03:26N 49°18' W 123°02'0 0.0
2017-Dec-08 02:56N 49°18' W 123°02'0 0.0
2017-Dec-08 02:29N 49°18' W 123°02'0 0.0
2017-Dec-08 01:56N 49°18' W 123°02'0 0.0
2017-Dec-08 01:26N 49°18' W 123°02'0 0.0
2017-Dec-08 00:59N 49°18' W 123°02'0 0.0
2017-Dec-08 00:26N 49°18' W 123°02'0 0.0
2017-Dec-07 23:56N 49°18' W 123°02'0 0.0
2017-Dec-07 23:29N 49°18' W 123°02'0 0.0
2017-Dec-07 22:56N 49°18' W 123°02'0 0.0
2017-Dec-07 22:11N 49°18' W 123°02'0 0.0
2017-Dec-07 21:59N 49°18' W 123°02'0 0.0
2017-Dec-07 21:23N 49°18' W 123°02'0 0.0
2017-Dec-07 20:59N 49°18' W 123°02'0 0.0
2017-Dec-07 20:29N 49°18' W 123°02'0 0.0
2017-Dec-07 19:56N 49°18' W 123°02'0 0.0
2017-Dec-07 19:23N 49°18' W 123°02'0 0.0
2017-Dec-07 18:56N 49°18' W 123°02'0 0.0
2017-Dec-07 18:26N 49°18' W 123°02'0 0.0
2017-Dec-07 17:59N 49°18' W 123°02'0 0.0
2017-Dec-07 17:11N 49°18' W 123°02'0 0.0
2017-Dec-07 16:50N 49°18' W 123°02'0 0.0
2017-Dec-07 16:29N 49°18' W 123°02'0 0.0
2017-Dec-07 15:59N 49°18' W 123°02'0 0.0
2017-Dec-07 15:26N 49°18' W 123°02'0 0.0
2017-Dec-07 14:56N 49°18' W 123°02'0 0.0
2017-Dec-07 14:23N 49°18' W 123°02'0 0.0
2017-Dec-07 13:53N 49°18' W 123°02'0 0.0
2017-Dec-07 13:11N 49°18' W 123°02'0 0.0
2017-Dec-07 12:59N 49°18' W 123°02'0 0.0
2017-Dec-07 12:29N 49°18' W 123°02'0 0.0
2017-Dec-07 11:56N 49°18' W 123°02'0 0.0
2017-Dec-07 11:29N 49°18' W 123°02'0 0.0
2017-Dec-07 10:59N 49°18' W 123°02'0 0.0
2017-Dec-07 10:26N 49°18' W 123°02'0 0.0
2017-Dec-07 09:59N 49°18' W 123°02'0 0.0
2017-Dec-07 09:29N 49°18' W 123°02'0 0.0
2017-Dec-07 08:59N 49°18' W 123°02'0 0.0
2017-Dec-07 08:29N 49°18' W 123°02'0 0.0
2017-Dec-07 07:59N 49°18' W 123°02'0 0.0
2017-Dec-07 07:29N 49°18' W 123°02'0 0.0
2017-Dec-07 06:59N 49°18' W 123°02'0 0.0
2017-Dec-07 06:29N 49°18' W 123°02'0 0.0
2017-Dec-07 05:59N 49°18' W 123°02'0 0.0
2017-Dec-07 05:29N 49°18' W 123°02'0 0.0
2017-Dec-07 04:59N 49°18' W 123°02'0 0.0
2017-Dec-07 04:17N 49°18' W 123°02'0 0.0
2017-Dec-07 03:59N 49°18' W 123°02'0 0.0
2017-Dec-07 03:29N 49°18' W 123°02'0 0.0
2017-Dec-07 02:53N 49°18' W 123°02'0 0.0
2017-Dec-07 02:29N 49°18' W 123°02'0 0.0
2017-Dec-07 01:59N 49°18' W 123°02'0 0.0
2017-Dec-07 01:29N 49°18' W 123°02'0 0.0
2017-Dec-07 00:59N 49°18' W 123°02'0 0.0
2017-Dec-07 00:29N 49°18' W 123°02'0 0.0
2017-Dec-06 23:59N 49°18' W 123°02'1 2.3
2017-Dec-06 23:30N 49°18' W 123°03'4 8.4
2017-Dec-06 23:00N 49°19' W 123°10'1 2.4
2017-Dec-06 22:30N 49°18' W 123°11'0 0.0
2017-Dec-06 21:54N 49°18' W 123°11'0 0.0
2017-Dec-06 21:30N 49°18' W 123°11'0 0.0
2017-Dec-06 20:54N 49°18' W 123°11'  
2017-Dec-04 10:23N 48°57' W 123°37'0 0.0
2017-Dec-04 09:59N 48°57' W 123°37'0 0.1
2017-Dec-04 09:29N 48°57' W 123°37'0 0.1
2017-Dec-04 08:44N 48°57' W 123°37'0 0.0
2017-Dec-04 08:29N 48°57' W 123°37'0 0.1
2017-Dec-04 07:59N 48°57' W 123°37'0 0.1
2017-Dec-04 07:29N 48°57' W 123°37'0 0.1
2017-Dec-04 06:50N 48°57' W 123°37'0 0.1
2017-Dec-04 06:29N 48°57' W 123°37'0 0.1
2017-Dec-04 05:59N 48°57' W 123°37'0 0.0
2017-Dec-04 05:29N 48°57' W 123°37'0 0.0
2017-Dec-04 04:26N 48°57' W 123°37'0 0.0
2017-Dec-04 03:56N 48°57' W 123°37'0 0.0
2017-Dec-04 03:29N 48°57' W 123°37'0 0.0
2017-Dec-04 02:56N 48°57' W 123°37'0 0.1
2017-Dec-04 02:29N 48°57' W 123°37'0 0.0
2017-Dec-04 01:59N 48°57' W 123°37'0 0.0
2017-Dec-04 01:23N 48°57' W 123°37'0 0.0
2017-Dec-04 00:59N 48°57' W 123°37'0 0.1
2017-Dec-04 00:14N 48°57' W 123°37'0 0.0
2017-Dec-03 23:59N 48°57' W 123°37'0 0.0
2017-Dec-03 23:26N 48°57' W 123°37'0 0.0
2017-Dec-03 22:59N 48°57' W 123°37'0 0.0
2017-Dec-03 22:29N 48°57' W 123°37'0 0.0
2017-Dec-03 21:53N 48°57' W 123°37'0 0.0
2017-Dec-03 21:29N 48°57' W 123°37'0 0.0
2017-Dec-03 20:59N 48°57' W 123°37'0 0.1
2017-Dec-03 20:26N 48°57' W 123°37'0 0.1
2017-Dec-03 19:59N 48°57' W 123°37'0 0.0
2017-Dec-03 19:29N 48°57' W 123°37'0 0.0
2017-Dec-03 18:56N 48°57' W 123°37'0 0.1
2017-Dec-03 18:29N 48°57' W 123°37'0 0.1
2017-Dec-03 17:59N 48°57' W 123°37'0 0.0
2017-Dec-03 17:29N 48°57' W 123°37'0 0.0
2017-Dec-03 16:50N 48°57' W 123°37'0 0.0
2017-Dec-03 16:23N 48°57' W 123°37'0 0.0
2017-Dec-03 15:56N 48°57' W 123°37'0 0.1
2017-Dec-03 15:23N 48°57' W 123°37'0 0.0
2017-Dec-03 14:56N 48°57' W 123°37'0 0.0
2017-Dec-03 14:26N 48°57' W 123°37'0 0.0
2017-Dec-03 13:59N 48°57' W 123°37'0 0.0
2017-Dec-03 13:08N 48°57' W 123°37'0 0.0
2017-Dec-03 12:56N 48°57' W 123°37'0 0.1
2017-Dec-03 12:26N 48°57' W 123°37'0 0.1
2017-Dec-03 11:56N 48°57' W 123°37'0 0.1
2017-Dec-03 11:26N 48°57' W 123°37'0 0.1
2017-Dec-03 10:56N 48°57' W 123°37'0 0.0
2017-Dec-03 10:29N 48°57' W 123°37'0 0.0
2017-Dec-03 09:59N 48°57' W 123°37'0 0.0
2017-Dec-03 09:29N 48°57' W 123°37'0 0.0
2017-Dec-03 08:50N 48°57' W 123°37'0 0.0
2017-Dec-03 08:29N 48°57' W 123°37'0 0.0
2017-Dec-03 07:56N 48°57' W 123°37'0 0.0
2017-Dec-03 07:26N 48°57' W 123°37'0 0.0
2017-Dec-03 06:59N 48°57' W 123°37'0 0.0
2017-Dec-03 06:26N 48°57' W 123°37'0 0.1
2017-Dec-03 05:59N 48°57' W 123°37'0 0.1
2017-Dec-03 05:23N 48°57' W 123°37'0 0.0
2017-Dec-03 04:17N 48°57' W 123°37'0 0.1
2017-Dec-03 03:56N 48°57' W 123°37'0 0.1
2017-Dec-03 03:29N 48°57' W 123°37'0 0.0
2017-Dec-03 02:53N 48°57' W 123°37'0 0.2
2017-Dec-03 02:23N 48°57' W 123°37'0 0.1
2017-Dec-03 01:56N 48°57' W 123°37'0 0.2
2017-Dec-03 01:26N 48°57' W 123°37'0 0.1
2017-Dec-03 00:56N 48°57' W 123°37'0 0.1
2017-Dec-03 00:23N 48°57' W 123°37'0 0.1
2017-Dec-02 23:56N 48°57' W 123°37'0 0.0
2017-Dec-02 23:29N 48°57' W 123°37'0 0.0
2017-Dec-02 22:59N 48°57' W 123°37'0 0.0
2017-Dec-02 22:26N 48°57' W 123°37'0 0.1
2017-Dec-02 21:56N 48°57' W 123°37'0 0.0
2017-Dec-02 21:17N 48°57' W 123°37'0 0.1
2017-Dec-02 17:23N 48°57' W 123°37'0 0.0
2017-Dec-02 16:08N 48°57' W 123°37'0 0.0
2017-Dec-02 15:38N 48°57' W 123°37'0 0.0
2017-Dec-02 15:20N 48°57' W 123°37'0 0.0
2017-Dec-02 13:59N 48°57' W 123°37'0 0.2
2017-Dec-02 13:08N 48°57' W 123°37'0 0.1
2017-Dec-02 12:56N 48°57' W 123°37'0 0.2
2017-Dec-02 12:29N 48°57' W 123°37'0 0.0
2017-Dec-02 11:59N 48°57' W 123°37'0 0.1
2017-Dec-02 11:29N 48°57' W 123°37'0 0.0
2017-Dec-02 10:59N 48°57' W 123°37'0 0.0
2017-Dec-02 10:26N 48°57' W 123°37'0 0.1
2017-Dec-02 09:56N 48°57' W 123°37'0 0.5
2017-Dec-02 09:29N 48°57' W 123°37'0 0.2
2017-Dec-02 08:59N 48°57' W 123°37'0 0.0
2017-Dec-02 07:35N 48°57' W 123°37'0 0.0
2017-Dec-02 07:23N 48°57' W 123°37'0 0.2
2017-Dec-02 06:59N 48°57' W 123°37'0 0.0
2017-Dec-02 02:05N 48°57' W 123°37'0 0.0
2017-Dec-02 01:59N 48°57' W 123°37'0 0.0
2017-Dec-02 01:26N 48°57' W 123°37'0 0.0
2017-Dec-02 00:38N 48°57' W 123°37'0 0.0
2017-Dec-02 00:14N 48°57' W 123°37'0 0.0
2017-Dec-01 23:56N 48°57' W 123°37'0 0.0
2017-Dec-01 22:56N 48°57' W 123°37'0 0.0
2017-Dec-01 22:23N 48°57' W 123°37'0 0.0
2017-Dec-01 21:53N 48°57' W 123°37'0 0.0
2017-Dec-01 21:26N 48°57' W 123°37'0 0.0
2017-Dec-01 20:59N 48°57' W 123°37'0 0.1
2017-Dec-01 20:29N 48°57' W 123°37'0 0.0
2017-Dec-01 19:53N 48°57' W 123°37'0 0.1
2017-Dec-01 19:17N 48°57' W 123°37'0 0.0
2017-Dec-01 18:47N 48°57' W 123°37'0 0.1
2017-Dec-01 18:20N 48°57' W 123°37'0 0.0
2017-Dec-01 17:59N 48°57' W 123°37'0 0.0
2017-Dec-01 17:11N 48°57' W 123°37'0 0.0
2017-Dec-01 16:44N 48°57' W 123°37'0 0.1
2017-Dec-01 16:05N 48°57' W 123°37'0 0.0
2017-Dec-01 15:47N 48°57' W 123°37'  

Dump ship's entire track history